createdAt,value
2023-04-05T00:00:10.056Z,58.69
2023-04-05T00:03:34.826Z,58.78
2023-04-05T00:06:40.007Z,58.88
2023-04-05T00:09:43.541Z,58.95
2023-04-05T00:12:46.473Z,58.96
2023-04-05T00:15:50.045Z,58.93
2023-04-05T00:18:53.025Z,59.01
2023-04-05T00:21:56.323Z,59.10
2023-04-05T00:24:59.664Z,59.14
2023-04-05T00:28:02.864Z,59.18
2023-04-05T00:31:06.174Z,59.24
2023-04-05T00:34:10.374Z,59.26
2023-04-05T00:37:13.416Z,59.29
2023-04-05T00:40:16.661Z,59.33
2023-04-05T00:43:19.689Z,59.36
2023-04-05T00:46:23.097Z,59.47
2023-04-05T00:49:26.263Z,59.56
2023-04-05T00:52:30.570Z,59.62
2023-04-05T00:55:34.163Z,59.54
2023-04-05T00:58:37.242Z,59.43
2023-04-05T01:01:41.250Z,59.40
2023-04-05T01:04:51.728Z,59.44
2023-04-05T01:08:04.947Z,59.49
2023-04-05T01:11:09.373Z,59.61
2023-04-05T01:14:12.417Z,59.71
2023-04-05T01:17:16.565Z,59.85
2023-04-05T01:20:21.994Z,59.94
2023-04-05T01:23:38.454Z,59.95
2023-04-05T01:27:16.460Z,59.99
2023-04-05T01:30:30.916Z,59.94
2023-04-05T01:33:33.855Z,60.04
2023-04-05T01:36:56.736Z,60.14
2023-04-05T01:40:00.640Z,60.09
2023-04-05T01:43:12.497Z,60.11
2023-04-05T01:46:15.598Z,60.09
2023-04-05T01:49:19.017Z,59.99
2023-04-05T01:52:22.013Z,59.90
2023-04-05T01:55:25.805Z,59.83
2023-04-05T01:58:29.376Z,59.68
2023-04-05T02:01:32.874Z,59.59
2023-04-05T02:04:35.949Z,59.53
2023-04-05T02:07:38.937Z,59.40
2023-04-05T02:10:42.848Z,59.47
2023-04-05T02:13:46.134Z,59.55
2023-04-05T02:16:49.198Z,59.67
2023-04-05T02:19:53.197Z,59.67
2023-04-05T02:22:56.924Z,59.39
2023-04-05T02:26:00.611Z,59.35
2023-04-05T02:29:03.623Z,59.24
2023-04-05T02:32:06.682Z,59.33
2023-04-05T02:35:10.771Z,59.17
2023-04-05T02:38:13.805Z,58.95
2023-04-05T02:41:16.813Z,58.84
2023-04-05T02:44:19.916Z,58.79
2023-04-05T02:47:22.891Z,58.81
2023-04-05T02:50:31.595Z,58.84
2023-04-05T02:53:35.433Z,58.76
2023-04-05T02:56:41.016Z,58.79
2023-04-05T02:59:47.740Z,58.81
2023-04-05T03:02:51.035Z,58.77
2023-04-05T03:06:09.928Z,58.57
2023-04-05T03:09:18.739Z,58.48
2023-04-05T03:12:22.428Z,58.41
2023-04-05T03:15:25.686Z,58.46
2023-04-05T03:18:29.742Z,58.51
2023-04-05T03:21:37.816Z,58.70
2023-04-05T03:24:46.645Z,58.78
2023-04-05T03:27:52.915Z,58.75
2023-04-05T03:30:57.162Z,58.79
2023-04-05T03:34:00.227Z,58.99
2023-04-05T03:37:06.012Z,59.20
2023-04-05T03:40:19.866Z,59.42
2023-04-05T03:43:23.951Z,59.40
2023-04-05T03:46:27.069Z,59.39
2023-04-05T03:49:30.061Z,59.45
2023-04-05T03:52:32.977Z,59.45
2023-04-05T03:55:36.334Z,59.38
2023-04-05T03:58:40.475Z,59.29
2023-04-05T04:01:44.874Z,59.33
2023-04-05T04:04:48.132Z,59.45
2023-04-05T04:07:51.270Z,59.47
2023-04-05T04:10:54.860Z,59.49
2023-04-05T04:14:00.743Z,59.39
2023-04-05T04:17:33.353Z,59.38
2023-04-05T04:20:52.420Z,59.34
2023-04-05T04:24:10.327Z,59.38
2023-04-05T04:27:26.210Z,59.53
2023-04-05T04:30:49.471Z,59.65
2023-04-05T04:34:14.669Z,59.66
2023-04-05T04:37:31.265Z,59.65
2023-04-05T04:40:54.463Z,59.82
2023-04-05T04:44:08.794Z,59.86
2023-04-05T04:47:21.918Z,59.95
2023-04-05T04:50:40.985Z,60.07
2023-04-05T04:53:43.932Z,59.97
2023-04-05T04:56:47.633Z,60.08
2023-04-05T04:59:50.718Z,60.16
2023-04-05T05:02:53.859Z,60.35
2023-04-05T05:05:57.144Z,60.48
2023-04-05T05:09:06.491Z,60.63
2023-04-05T05:12:13.869Z,60.80
2023-04-05T05:15:16.864Z,60.93
2023-04-05T05:18:19.949Z,61.03
2023-04-05T05:21:22.985Z,61.08
2023-04-05T05:24:34.952Z,61.10
2023-04-05T05:27:37.963Z,61.11
2023-04-05T05:30:41.103Z,61.20
2023-04-05T05:33:47.877Z,61.46
2023-04-05T05:36:52.443Z,61.60
2023-04-05T05:39:55.485Z,61.70
2023-04-05T05:42:58.539Z,61.74
2023-04-05T05:46:02.818Z,61.76
2023-04-05T05:49:06.243Z,61.66
2023-04-05T05:52:09.225Z,61.60
2023-04-05T05:55:12.348Z,61.57
2023-04-05T05:58:15.993Z,61.49
2023-04-05T06:01:23.142Z,61.39
2023-04-05T06:04:26.414Z,61.07
2023-04-05T06:07:29.850Z,60.97
2023-04-05T06:10:33.112Z,60.57
2023-04-05T06:13:37.898Z,60.35
2023-04-05T06:16:41.117Z,60.28
2023-04-05T06:19:44.191Z,60.18
2023-04-05T06:22:47.174Z,60.05
2023-04-05T06:25:50.137Z,60.01
2023-04-05T06:28:54.335Z,60.03
2023-04-05T06:31:57.374Z,59.89
2023-04-05T06:35:03.627Z,59.73
2023-04-05T06:38:06.858Z,59.59
2023-04-05T06:41:10.198Z,59.51
2023-04-05T06:44:13.230Z,59.40
2023-04-05T06:47:16.590Z,59.33
2023-04-05T06:50:19.675Z,59.23
2023-04-05T06:53:22.723Z,59.11
2023-04-05T06:56:25.834Z,58.97
2023-04-05T06:59:30.047Z,58.94
2023-04-05T07:02:35.333Z,58.88
2023-04-05T07:05:39.354Z,58.79
2023-04-05T07:08:44.939Z,58.82
2023-04-05T07:11:50.989Z,58.52
2023-04-05T07:14:54.138Z,58.34
2023-04-05T07:17:57.300Z,58.39
2023-04-05T07:21:00.413Z,58.09
2023-04-05T07:24:03.840Z,57.93
2023-04-05T07:27:07.447Z,57.67
2023-04-05T07:30:10.994Z,57.20
2023-04-05T07:33:14.146Z,57.04
2023-04-05T07:36:23.348Z,56.63
2023-04-05T07:39:26.894Z,56.27
2023-04-05T07:42:32.035Z,55.90
2023-04-05T07:45:35.558Z,54.96
2023-04-05T07:48:38.568Z,54.18
2023-04-05T07:51:43.417Z,52.96
2023-04-05T07:54:46.663Z,52.96
2023-04-05T07:57:49.774Z,52.22
2023-04-05T08:00:53.555Z,51.86
2023-04-05T08:03:59.716Z,51.41
2023-04-05T08:07:03.151Z,50.96
2023-04-05T08:10:06.645Z,50.66
2023-04-05T08:13:09.889Z,50.35
2023-04-05T08:16:13.178Z,50.40
2023-04-05T08:19:16.917Z,50.21
2023-04-05T08:22:21.781Z,50.80
2023-04-05T08:25:24.867Z,50.59
2023-04-05T08:28:28.029Z,50.44
2023-04-05T08:31:31.321Z,50.68
2023-04-05T08:34:34.453Z,50.42
2023-04-05T08:37:37.636Z,50.40
2023-04-05T08:40:44.142Z,50.44
2023-04-05T08:43:59.051Z,50.64
2023-04-05T08:47:02.217Z,50.27
2023-04-05T08:50:05.745Z,50.45
2023-04-05T08:53:11.904Z,50.27
2023-04-05T08:56:25.997Z,50.20
2023-04-05T08:59:29.916Z,49.93
2023-04-05T09:02:33.917Z,49.21
2023-04-05T09:05:39.690Z,48.43
2023-04-05T09:08:43.104Z,48.25
2023-04-05T09:11:46.413Z,47.92
2023-04-05T09:14:50.669Z,47.62
2023-04-05T09:17:55.965Z,47.35
2023-04-05T09:21:04.858Z,48.05
2023-04-05T09:24:07.964Z,47.85
2023-04-05T09:27:18.605Z,47.28
2023-04-05T09:30:28.146Z,47.12
2023-04-05T09:33:31.904Z,46.78
2023-04-05T09:36:35.998Z,46.40
2023-04-05T09:39:39.278Z,46.23
2023-04-05T09:42:48.375Z,46.46
2023-04-05T09:45:52.765Z,46.58
2023-04-05T09:48:57.159Z,45.73
2023-04-05T09:52:02.334Z,45.21
2023-04-05T09:55:09.574Z,44.91
2023-04-05T09:58:14.305Z,44.48
2023-04-05T10:01:17.818Z,44.40
2023-04-05T10:04:22.722Z,44.39
2023-04-05T10:07:26.400Z,43.91
2023-04-05T10:10:46.296Z,44.20
2023-04-05T10:13:54.357Z,43.98
2023-04-05T10:17:23.715Z,43.90
2023-04-05T10:20:29.812Z,43.77
2023-04-05T10:23:44.965Z,44.46
2023-04-05T10:27:06.568Z,44.46
2023-04-05T10:30:18.015Z,44.58
2023-04-05T10:33:31.985Z,44.24
2023-04-05T10:36:58.358Z,43.04
2023-04-05T10:40:04.351Z,42.34
2023-04-05T10:43:16.672Z,41.57
2023-04-05T10:46:22.869Z,41.55
2023-04-05T10:49:46.604Z,42.27
2023-04-05T10:52:51.536Z,42.30
2023-04-05T10:55:56.064Z,42.70
2023-04-05T10:59:00.417Z,42.36
2023-04-05T11:02:04.612Z,41.69
2023-04-05T11:05:32.591Z,41.67
2023-04-05T11:08:42.413Z,41.55
2023-04-05T11:11:50.090Z,41.20
2023-04-05T11:14:53.199Z,40.94
2023-04-05T11:18:22.125Z,41.47
2023-04-05T11:21:26.234Z,41.61
2023-04-05T11:24:57.992Z,40.96
2023-04-05T11:28:01.601Z,40.73
2023-04-05T11:31:23.006Z,40.40
2023-04-05T11:34:26.503Z,40.45
2023-04-05T11:38:00.068Z,40.68
2023-04-05T11:41:20.685Z,41.14
2023-04-05T11:44:26.619Z,40.50
2023-04-05T11:47:29.787Z,40.73
2023-04-05T11:50:33.594Z,39.51
2023-04-05T11:53:37.882Z,39.11
2023-04-05T11:56:42.510Z,38.80
2023-04-05T11:59:45.708Z,38.73
2023-04-05T12:02:48.869Z,38.54
2023-04-05T12:05:54.190Z,39.03
2023-04-05T12:08:57.325Z,39.45
2023-04-05T12:12:00.644Z,39.16
2023-04-05T12:15:05.539Z,39.18
2023-04-05T12:18:15.369Z,39.40
2023-04-05T12:21:18.623Z,38.48
2023-04-05T12:24:24.765Z,38.41
2023-04-05T12:27:28.130Z,37.96
2023-04-05T12:30:36.607Z,37.91
2023-04-05T12:33:41.472Z,38.17
2023-04-05T12:36:46.277Z,38.43
2023-04-05T12:39:49.464Z,38.50
2023-04-05T12:42:52.637Z,38.69
2023-04-05T12:45:56.649Z,39.38
2023-04-05T12:48:59.797Z,39.09
2023-04-05T12:52:03.143Z,38.94
2023-04-05T12:55:15.449Z,38.68
2023-04-05T12:58:20.702Z,38.55
2023-04-05T13:01:23.823Z,38.30
2023-04-05T13:04:27.032Z,37.91
2023-04-05T13:07:30.525Z,37.66
2023-04-05T13:10:33.695Z,37.43
2023-04-05T13:13:36.822Z,37.21
2023-04-05T13:16:40.031Z,37.01
2023-04-05T13:19:43.235Z,36.88
2023-04-05T13:22:47.011Z,36.59
2023-04-05T13:25:50.262Z,36.27
2023-04-05T13:28:53.367Z,36.65
2023-04-05T13:31:56.931Z,36.60
2023-04-05T13:35:00.053Z,36.63
2023-04-05T13:38:04.521Z,36.85
2023-04-05T13:41:08.144Z,36.40
2023-04-05T13:44:11.256Z,36.30
2023-04-05T13:47:15.091Z,36.54
2023-04-05T13:50:18.096Z,35.56
2023-04-05T13:53:21.184Z,35.02
2023-04-05T13:56:24.393Z,34.47
2023-04-05T13:59:27.641Z,34.90
2023-04-05T14:02:33.270Z,34.97
2023-04-05T14:05:36.510Z,35.27
2023-04-05T14:08:39.700Z,35.44
2023-04-05T14:11:42.918Z,44.76
2023-04-05T14:14:46.303Z,39.71
2023-04-05T14:17:49.706Z,38.14
2023-04-05T14:20:53.285Z,37.85
2023-04-05T14:23:58.351Z,37.48
2023-04-05T14:27:02.425Z,37.38
2023-04-05T14:30:06.405Z,37.49
2023-04-05T14:33:09.590Z,37.72
2023-04-05T14:36:12.725Z,37.38
2023-04-05T14:39:16.063Z,37.44
2023-04-05T14:42:19.368Z,37.40
2023-04-05T14:45:27.198Z,37.59
2023-04-05T14:48:31.963Z,37.46
2023-04-05T14:51:35.515Z,37.68
2023-04-05T14:54:38.588Z,37.72
2023-04-05T14:57:42.137Z,38.03
2023-04-05T15:00:45.558Z,38.08
2023-04-05T15:03:52.037Z,38.12
2023-04-05T15:06:56.289Z,38.42
2023-04-05T15:09:59.423Z,38.41
2023-04-05T15:13:02.633Z,38.49
2023-04-05T15:16:05.971Z,38.56
2023-04-05T15:19:09.139Z,38.92
2023-04-05T15:22:12.426Z,39.06
2023-04-05T15:25:15.852Z,38.99
2023-04-05T15:28:19.147Z,39.07
2023-04-05T15:31:22.603Z,39.17
2023-04-05T15:34:27.352Z,39.04
2023-04-05T15:37:30.761Z,39.21
2023-04-05T15:40:34.546Z,39.17
2023-04-05T15:43:39.496Z,39.30
2023-04-05T15:46:42.775Z,39.41
2023-04-05T15:49:47.553Z,39.24
2023-04-05T15:52:55.589Z,39.37
2023-04-05T15:55:58.952Z,39.60
2023-04-05T15:59:02.489Z,39.54
2023-04-05T16:02:06.161Z,39.89
2023-04-05T16:05:09.341Z,39.69
2023-04-05T16:08:12.623Z,39.83
2023-04-05T16:11:15.853Z,39.98
2023-04-05T16:14:18.920Z,40.04
2023-04-05T16:17:22.249Z,40.17
2023-04-05T16:20:25.999Z,40.06
2023-04-05T16:23:29.637Z,40.08
2023-04-05T16:26:33.056Z,40.13
2023-04-05T16:29:36.179Z,40.12
2023-04-05T16:32:39.263Z,39.99
2023-04-05T16:35:42.415Z,39.94
2023-04-05T16:38:47.472Z,39.92
2023-04-05T16:41:50.659Z,39.80
2023-04-05T16:44:53.724Z,40.12
2023-04-05T16:47:56.756Z,40.26
2023-04-05T16:50:59.842Z,40.51
2023-04-05T16:54:03.378Z,40.82
2023-04-05T16:57:06.445Z,41.12
2023-04-05T17:00:10.757Z,41.44
2023-04-05T17:03:13.978Z,41.58
2023-04-05T17:06:17.664Z,42.00
2023-04-05T17:09:21.681Z,42.32
2023-04-05T17:12:24.943Z,42.42
2023-04-05T17:15:28.247Z,42.54
2023-04-05T17:18:31.364Z,42.73
2023-04-05T17:21:35.741Z,43.28
2023-04-05T17:24:38.939Z,43.44
2023-04-05T17:27:42.011Z,43.54
2023-04-05T17:30:45.253Z,43.80
2023-04-05T17:33:48.880Z,44.05
2023-04-05T17:36:52.935Z,44.19
2023-04-05T17:39:56.386Z,44.35
2023-04-05T17:42:59.449Z,44.77
2023-04-05T17:46:03.134Z,44.79
2023-04-05T17:49:06.459Z,45.05
2023-04-05T17:52:09.769Z,45.16
2023-04-05T17:55:12.845Z,45.45
2023-04-05T17:58:15.968Z,46.07
2023-04-05T18:01:19.341Z,46.28
2023-04-05T18:04:25.657Z,46.36
2023-04-05T18:07:28.793Z,46.73
2023-04-05T18:10:31.897Z,46.99
2023-04-05T18:13:35.132Z,46.99
2023-04-05T18:16:38.532Z,47.01
2023-04-05T18:19:41.817Z,47.17
2023-04-05T18:22:44.937Z,47.06
2023-04-05T18:25:48.554Z,47.09
2023-04-05T18:28:57.768Z,47.31
2023-04-05T18:32:01.009Z,47.70
2023-04-05T18:35:04.619Z,47.62
2023-04-05T18:38:07.875Z,47.82
2023-04-05T18:41:12.446Z,47.75
2023-04-05T18:44:16.185Z,47.84
2023-04-05T18:47:19.199Z,48.21
2023-04-05T18:50:22.321Z,48.70
2023-04-05T18:53:25.591Z,49.02
2023-04-05T18:56:28.872Z,49.31
2023-04-05T18:59:32.053Z,49.57
2023-04-05T19:02:35.221Z,49.93
2023-04-05T19:05:38.514Z,50.00
2023-04-05T19:08:42.274Z,50.18
2023-04-05T19:11:45.336Z,50.25
2023-04-05T19:14:48.416Z,50.53
2023-04-05T19:17:51.411Z,50.79
2023-04-05T19:20:59.830Z,50.94
2023-04-05T19:24:03.061Z,50.97
2023-04-05T19:27:06.313Z,51.15
2023-04-05T19:30:09.783Z,51.25
2023-04-05T19:33:13.448Z,51.43
2023-04-05T19:36:16.617Z,51.48
2023-04-05T19:39:25.416Z,51.66
2023-04-05T19:42:28.503Z,51.69
2023-04-05T19:45:32.527Z,51.86
2023-04-05T19:48:35.961Z,52.02
2023-04-05T19:51:39.241Z,52.08
2023-04-05T19:54:43.460Z,52.28
2023-04-05T19:57:47.339Z,52.37
2023-04-05T20:00:54.923Z,52.51
2023-04-05T20:03:59.264Z,52.55
2023-04-05T20:07:03.908Z,52.56
2023-04-05T20:10:20.873Z,52.74
2023-04-05T20:13:24.250Z,52.83
2023-04-05T20:16:33.008Z,52.95
2023-04-05T20:19:41.562Z,52.91
2023-04-05T20:22:44.545Z,53.03
2023-04-05T20:25:48.405Z,52.98
2023-04-05T20:28:55.318Z,53.11
2023-04-05T20:31:58.940Z,53.05
2023-04-05T20:35:02.015Z,53.13
2023-04-05T20:38:05.370Z,53.31
2023-04-05T20:41:10.144Z,53.48
2023-04-05T20:44:13.268Z,53.53
2023-04-05T20:47:16.390Z,53.43
2023-04-05T20:50:19.360Z,53.60
2023-04-05T20:53:22.432Z,53.80
2023-04-05T20:56:25.770Z,54.10
2023-04-05T20:59:29.152Z,54.19
2023-04-05T21:02:32.283Z,54.34
2023-04-05T21:05:35.613Z,54.51
2023-04-05T21:08:39.904Z,54.44
2023-04-05T21:11:42.969Z,54.43
2023-04-05T21:14:46.008Z,54.51
2023-04-05T21:17:49.054Z,54.69
2023-04-05T21:20:53.693Z,54.75
2023-04-05T21:23:56.712Z,54.86
2023-04-05T21:26:59.723Z,54.89
2023-04-05T21:30:03.131Z,54.91
2023-04-05T21:33:06.672Z,54.86
2023-04-05T21:36:09.828Z,54.95
2023-04-05T21:39:12.888Z,55.17
2023-04-05T21:42:16.041Z,55.35
2023-04-05T21:45:19.069Z,55.41
2023-04-05T21:48:24.051Z,55.48
2023-04-05T21:51:27.078Z,55.55
2023-04-05T21:54:30.216Z,55.66
2023-04-05T21:57:36.149Z,55.70
2023-04-05T22:00:39.341Z,55.76
2023-04-05T22:03:42.482Z,55.62
2023-04-05T22:06:45.531Z,55.76
2023-04-05T22:09:48.582Z,55.96
2023-04-05T22:12:51.809Z,56.00
2023-04-05T22:15:54.801Z,56.15
2023-04-05T22:18:58.004Z,56.25
2023-04-05T22:22:01.085Z,56.10
2023-04-05T22:25:04.477Z,56.07
2023-04-05T22:28:07.466Z,56.04
2023-04-05T22:31:10.676Z,56.27
2023-04-05T22:34:13.856Z,56.39
2023-04-05T22:37:16.916Z,56.50
2023-04-05T22:40:20.072Z,56.60
2023-04-05T22:43:24.022Z,56.69
2023-04-05T22:46:27.077Z,56.64
2023-04-05T22:49:30.796Z,56.61
2023-04-05T22:52:33.819Z,56.69
2023-04-05T22:55:39.750Z,56.77
2023-04-05T22:58:42.761Z,56.82
2023-04-05T23:01:45.794Z,56.77
2023-04-05T23:04:48.845Z,56.75
2023-04-05T23:07:52.346Z,56.69
2023-04-05T23:10:55.564Z,56.66
2023-04-05T23:13:58.655Z,56.59
2023-04-05T23:17:01.742Z,56.58
2023-04-05T23:20:06.955Z,56.60
2023-04-05T23:23:10.379Z,56.74
2023-04-05T23:26:13.487Z,56.83
2023-04-05T23:29:18.706Z,56.85
2023-04-05T23:32:21.869Z,56.90
2023-04-05T23:35:24.919Z,56.97
2023-04-05T23:38:27.895Z,57.09
2023-04-05T23:41:31.391Z,57.13
2023-04-05T23:44:34.637Z,57.25
2023-04-05T23:47:38.342Z,57.28
2023-04-05T23:50:41.472Z,57.33
2023-04-05T23:53:44.528Z,57.29
2023-04-05T23:56:48.236Z,57.14
2023-04-05T23:59:52.283Z,57.22
